Terminal Aerodrome Forecast
Issued by NWS

Home | Current Version | Previous Version | Text Only | Print | Product List | Glossary On
Versions: 1 2 3 4 5 6 7 8 9 10 11 12 13 14 15 16
159
FTUS44 KJAN 180009
TAFHKS
TAF
KHKS 180009Z 1806/1906 33006KT P6SM -RA VCSH BKN006 OVC017
     FM180700 02007KT P6SM BKN015 BKN050
     FM181300 06007KT P6SM VCSH BKN015 OVC050
     FM181900 14008KT P6SM BKN015 BKN050=

USA.gov is the U.S. government's official web portal to all federal, state and local government web resources and services.